Flight Track Log - Related Links

Times and Time Zones

All times are in EST time to prevent confusion due to time zone crossing. See the AMF1324 flight status page for this flight to view local times or setup timezone preferences in your user account.

Time Position Orientation Groundspeed Altitude Reporting Facility
EST Latitude Longitude Course Direction KTS MPH feet Rate Location/Type
Wed 06:24:39 AM 42.9333 -78.7333 180° South 136 157 1,400  Level Buffalo TRACON
Wed 06:25:09 AM 42.9167 -78.7333 180° South 141 162 2,700 1,552 Climbing Buffalo TRACON
Wed 06:27:33 AM 42.9069 -78.5664 94° East 214 246 5,900 1,405 Climbing Cleveland Center
Wed 06:28:34 AM 42.9089 -78.4697 88° East 218 251 7,500 1,328 Climbing Cleveland Center
Wed 06:29:35 AM 42.9069 -78.3892 92° East 221 254 8,600 1,180 Climbing Cleveland Center
Wed 06:30:36 AM 42.9053 -78.2992 91° East 227 261 9,900 1,230 Climbing Cleveland Center
Wed 06:31:37 AM 42.9017 -78.2128 93° East 222 255 11,100 1,180 Climbing Cleveland Center
Wed 06:32:38 AM 42.8906 -78.1317 101° East 219 252 12,300 934 Climbing Cleveland Center
Wed 06:33:39 AM 42.8822 -78.0469 98° East 227 261 13,000 295 Climbing Cleveland Center
Wed 06:34:40 AM 42.8669 -77.9519 102° East 257 296 12,900 -49 Descending Cleveland Center
Wed 06:35:41 AM 42.8481 -77.8533 105° East 268 308 12,900 49 Level Cleveland Center
Wed 06:36:42 AM 42.8317 -77.7550 103° East 265 305 13,000 49 Climbing Cleveland Center
Wed 06:37:43 AM 42.8106 -77.6603 107° East 260 299 13,000  Level Cleveland Center
Wed 06:38:44 AM 42.7783 -77.5733 117° Southeast 255 293 13,000  Level Cleveland Center
Wed 06:39:46 AM 42.7408 -77.4900 121° Southeast 255 293 13,000  Level Cleveland Center
Wed 06:40:47 AM 42.7036 -77.4072 121° Southeast 254 292 13,000  Level Cleveland Center
Wed 06:41:48 AM 42.6658 -77.3244 122° Southeast 256 295 13,000  Level Cleveland Center
Wed 06:42:49 AM 42.6292 -77.2408 121° Southeast 256 295 13,000  Level Cleveland Center
Wed 06:43:50 AM 42.6003 -77.1508 114° Southeast 258 297 13,000  Level Cleveland Center
Wed 06:44:52 AM 42.5683 -77.0636 116° Southeast 259 298 13,000  Level Cleveland Center
Wed 06:45:53 AM 42.5192 -76.9686 125° Southeast 256 295 13,000 49 Level Cleveland Center
Wed 06:46:54 AM 42.4803 -76.8897 124° Southeast 253 291 13,100 -197 Climbing Cleveland Center
Wed 06:47:55 AM 42.4481 -76.8022 116° Southeast 258 297 12,600 -732 Descending Cleveland Center
Wed 06:48:57 AM 42.4092 -76.7131 121° Southeast 270 311 11,600 -927 Descending Cleveland Center
Wed 06:49:58 AM 42.3703 -76.6239 121° Southeast 275 316 10,700 -1,180 Descending Cleveland Center
Wed 06:50:59 AM 42.3669 -76.5178 92° East 286 329 9,200 -1,869 Descending Cleveland Center
Wed 06:52:00 AM 42.3611 -76.4089 94° East 290 334 6,900 -2,146 Descending Cleveland Center
Wed 06:53:02 AM 42.3544 -76.3014 95° East 289 333 4,800 -1,561 Descending Cleveland Center
Wed 06:54:03 AM 42.3497 -76.1825 93° East 288 331 3,700 -768 Descending Cleveland Center
Wed 06:55:07 AM 42.3442 -76.0758 94° East 279 321 3,200 -290 Descending New York Center
Wed 06:56:07 AM 42.3028 -76.0697 174° South 202 232 3,100 -50 Descending New York Center
Wed 06:57:07 AM 42.2689 -76.0333 142° Southeast 174 200 3,100 -350 Level New York Center
Wed 06:58:07 AM 42.2353 -75.9942 139° Southeast 153 176 2,400 -700 Descending New York Center

Login

Don't have an account? Register now (free) for customized features, flight alerts, and more!